sensor_id;sensor_type;location;lat;lon;timestamp;temperature;humidity
70947;DHT22;58605;48.700;8.760;2024-01-16T06:55:14;-5.80;92.60
70947;DHT22;58605;48.700;8.760;2024-01-16T06:57:47;-5.70;92.60
70947;DHT22;58605;48.700;8.760;2024-01-16T07:00:14;-5.70;92.70
70947;DHT22;58605;48.700;8.760;2024-01-16T07:02:41;-5.60;92.80
70947;DHT22;58605;48.700;8.760;2024-01-16T07:05:09;-5.60;92.50
70947;DHT22;58605;48.700;8.760;2024-01-16T07:07:35;-5.60;92.40
70947;DHT22;58605;48.700;8.760;2024-01-16T07:10:09;-5.60;92.30
70947;DHT22;58605;48.700;8.760;2024-01-16T07:12:40;-5.60;92.00
70947;DHT22;58605;48.700;8.760;2024-01-16T07:15:07;-5.60;91.20
70947;DHT22;58605;48.700;8.760;2024-01-16T07:17:33;-5.60;91.30
70947;DHT22;58605;48.700;8.760;2024-01-16T07:19:59;-5.70;91.50
70947;DHT22;58605;48.700;8.760;2024-01-16T07:22:25;-5.80;91.50
70947;DHT22;58605;48.700;8.760;2024-01-16T07:24:52;-5.80;91.30
70947;DHT22;58605;48.700;8.760;2024-01-16T07:27:19;-5.90;90.60
70947;DHT22;58605;48.700;8.760;2024-01-16T07:29:46;-5.80;91.20
70947;DHT22;58605;48.700;8.760;2024-01-16T07:32:12;-5.70;91.80
70947;DHT22;58605;48.700;8.760;2024-01-16T07:34:38;-5.70;91.50
70947;DHT22;58605;48.700;8.760;2024-01-16T07:37:05;-5.70;91.30
70947;DHT22;58605;48.700;8.760;2024-01-16T07:39:31;-5.50;91.60
70947;DHT22;58605;48.700;8.760;2024-01-16T07:41:57;-5.40;91.40
70947;DHT22;58605;48.700;8.760;2024-01-16T07:44:23;-5.30;91.10
70947;DHT22;58605;48.700;8.760;2024-01-16T07:46:50;-5.20;91.00
70947;DHT22;58605;48.700;8.760;2024-01-16T07:49:17;-5.00;90.80
70947;DHT22;58605;48.700;8.760;2024-01-16T07:51:43;-5.00;90.80
70947;DHT22;58605;48.700;8.760;2024-01-16T07:54:09;-4.90;90.60
70947;DHT22;58605;48.700;8.760;2024-01-16T07:56:43;-4.90;90.30
70947;DHT22;58605;48.700;8.760;2024-01-16T07:59:12;-4.80;89.20
70947;DHT22;58605;48.700;8.760;2024-01-16T08:01:38;-4.90;88.60
70947;DHT22;58605;48.700;8.760;2024-01-16T08:04:06;-5.10;88.80
70947;DHT22;58605;48.700;8.760;2024-01-16T08:06:32;-5.20;88.50
70947;DHT22;58605;48.700;8.760;2024-01-16T08:08:58;-5.30;89.30
70947;DHT22;58605;48.700;8.760;2024-01-16T08:11:24;-5.30;90.00
70947;DHT22;58605;48.700;8.760;2024-01-16T08:13:50;-5.30;90.00
70947;DHT22;58605;48.700;8.760;2024-01-16T08:16:16;-5.30;90.60
70947;DHT22;58605;48.700;8.760;2024-01-16T08:18:42;-5.20;90.30
70947;DHT22;58605;48.700;8.760;2024-01-16T08:21:10;-5.20;90.00
70947;DHT22;58605;48.700;8.760;2024-01-16T08:23:37;-5.20;90.30
70947;DHT22;58605;48.700;8.760;2024-01-16T08:26:03;-5.20;90.40
70947;DHT22;58605;48.700;8.760;2024-01-16T08:28:30;-5.20;90.60
70947;DHT22;58605;48.700;8.760;2024-01-16T08:30:56;-5.10;90.50
70947;DHT22;58605;48.700;8.760;2024-01-16T08:33:24;-5.00;90.50
70947;DHT22;58605;48.700;8.760;2024-01-16T08:35:50;-4.90;90.20
70947;DHT22;58605;48.700;8.760;2024-01-16T08:38:18;-4.80;90.10
70947;DHT22;58605;48.700;8.760;2024-01-16T08:40:44;-4.70;89.20
70947;DHT22;58605;48.700;8.760;2024-01-16T08:43:10;-4.50;89.10
70947;DHT22;58605;48.700;8.760;2024-01-16T08:45:36;-4.30;89.10
70947;DHT22;58605;48.700;8.760;2024-01-16T08:48:03;-4.20;88.30
70947;DHT22;58605;48.700;8.760;2024-01-16T08:50:29;-4.00;87.80
70947;DHT22;58605;48.700;8.760;2024-01-16T08:52:55;-3.80;87.10
70947;DHT22;58605;48.700;8.760;2024-01-16T08:55:23;-3.60;86.70
70947;DHT22;58605;48.700;8.760;2024-01-16T08:57:56;-3.40;85.10
70947;DHT22;58605;48.700;8.760;2024-01-16T09:00:22;-3.00;83.50
70947;DHT22;58605;48.700;8.760;2024-01-16T09:02:48;-2.90;81.30
70947;DHT22;58605;48.700;8.760;2024-01-16T09:05:15;-2.90;80.90
70947;DHT22;58605;48.700;8.760;2024-01-16T09:07:41;-3.00;81.40
70947;DHT22;58605;48.700;8.760;2024-01-16T09:10:08;-3.00;81.70
70947;DHT22;58605;48.700;8.760;2024-01-16T09:12:36;-3.10;82.10
70947;DHT22;58605;48.700;8.760;2024-01-16T09:15:02;-3.10;82.20
70947;DHT22;58605;48.700;8.760;2024-01-16T09:17:28;-3.20;81.80
70947;DHT22;58605;48.700;8.760;2024-01-16T09:19:54;-3.20;82.70
70947;DHT22;58605;48.700;8.760;2024-01-16T09:22:20;-3.10;83.70
70947;DHT22;58605;48.700;8.760;2024-01-16T09:24:46;-2.90;83.10
70947;DHT22;58605;48.700;8.760;2024-01-16T09:27:13;-2.60;82.80
70947;DHT22;58605;48.700;8.760;2024-01-16T09:29:41;-2.50;82.10
70947;DHT22;58605;48.700;8.760;2024-01-16T09:32:07;-2.20;80.80
70947;DHT22;58605;48.700;8.760;2024-01-16T09:34:34;-2.00;80.00
70947;DHT22;58605;48.700;8.760;2024-01-16T09:37:00;-1.70;79.20
70947;DHT22;58605;48.700;8.760;2024-01-16T09:39:28;-1.50;77.40
70947;DHT22;58605;48.700;8.760;2024-01-16T09:41:59;-1.50;76.50
70947;DHT22;58605;48.700;8.760;2024-01-16T09:44:29;-1.40;76.30
70947;DHT22;58605;48.700;8.760;2024-01-16T09:46:58;-1.40;76.40
70947;DHT22;58605;48.700;8.760;2024-01-16T09:49:25;-1.20;76.40
70947;DHT22;58605;48.700;8.760;2024-01-16T09:51:51;-1.00;75.40
70947;DHT22;58605;48.700;8.760;2024-01-16T09:54:17;-1.00;75.30
70947;DHT22;58605;48.700;8.760;2024-01-16T09:56:43;-1.00;75.50
70947;DHT22;58605;48.700;8.760;2024-01-16T09:59:15;-0.90;75.90
70947;DHT22;58605;48.700;8.760;2024-01-16T10:01:43;-0.70;74.40
70947;DHT22;58605;48.700;8.760;2024-01-16T10:04:11;-0.70;74.30
70947;DHT22;58605;48.700;8.760;2024-01-16T10:06:38;-0.50;73.50
70947;DHT22;58605;48.700;8.760;2024-01-16T10:09:05;-0.50;72.80
70947;DHT22;58605;48.700;8.760;2024-01-16T10:11:33;-0.50;72.30
70947;DHT22;58605;48.700;8.760;2024-01-16T10:14:00;-0.50;72.70
70947;DHT22;58605;48.700;8.760;2024-01-16T10:16:55;-0.40;72.70
70947;DHT22;58605;48.700;8.760;2024-01-16T10:19:23;-0.30;72.70
70947;DHT22;58605;48.700;8.760;2024-01-16T10:21:50;-0.30;71.90
70947;DHT22;58605;48.700;8.760;2024-01-16T10:24:16;-0.30;71.80
70947;DHT22;58605;48.700;8.760;2024-01-16T10:26:42;-0.30;72.00
70947;DHT22;58605;48.700;8.760;2024-01-16T10:29:08;-0.30;72.50
70947;DHT22;58605;48.700;8.760;2024-01-16T10:31:35;-0.40;72.70
70947;DHT22;58605;48.700;8.760;2024-01-16T10:34:01;-0.40;73.60
70947;DHT22;58605;48.700;8.760;2024-01-16T10:36:31;-0.20;73.30
70947;DHT22;58605;48.700;8.760;2024-01-16T10:39:03;0.00;72.60
70947;DHT22;58605;48.700;8.760;2024-01-16T10:41:29;0.30;71.20
70947;DHT22;58605;48.700;8.760;2024-01-16T10:44:04;0.40;70.40
70947;DHT22;58605;48.700;8.760;2024-01-16T10:46:30;0.30;70.30
70947;DHT22;58605;48.700;8.760;2024-01-16T10:49:00;0.20;70.70
70947;DHT22;58605;48.700;8.760;2024-01-16T10:51:27;0.20;70.60
70947;DHT22;58605;48.700;8.760;2024-01-16T10:53:58;0.10;71.10
70947;DHT22;58605;48.700;8.760;2024-01-16T10:56:27;0.00;72.00
70947;DHT22;58605;48.700;8.760;2024-01-16T10:59:00;-0.20;72.80
70947;DHT22;58605;48.700;8.760;2024-01-16T11:01:31;-0.20;73.70
70947;DHT22;58605;48.700;8.760;2024-01-16T11:03:58;-0.30;73.90
70947;DHT22;58605;48.700;8.760;2024-01-16T11:06:26;-0.40;74.20
70947;DHT22;58605;48.700;8.760;2024-01-16T11:08:55;-0.50;74.70
70947;DHT22;58605;48.700;8.760;2024-01-16T11:11:22;-0.50;74.90
70947;DHT22;58605;48.700;8.760;2024-01-16T11:13:50;-0.40;75.00
70947;DHT22;58605;48.700;8.760;2024-01-16T11:16:16;-0.40;75.00
70947;DHT22;58605;48.700;8.760;2024-01-16T11:18:44;-0.50;75.40
70947;DHT22;58605;48.700;8.760;2024-01-16T11:21:11;-0.70;76.10
70947;DHT22;58605;48.700;8.760;2024-01-16T11:23:38;-0.80;76.80
70947;DHT22;58605;48.700;8.760;2024-01-16T11:26:26;-0.90;77.50
70947;DHT22;58605;48.700;8.760;2024-01-16T11:28:54;-0.90;77.90
70947;DHT22;58605;48.700;8.760;2024-01-16T11:31:29;-0.90;78.40
70947;DHT22;58605;48.700;8.760;2024-01-16T11:33:59;-1.00;78.50
70947;DHT22;58605;48.700;8.760;2024-01-16T11:36:50;-1.10;78.80
70947;DHT22;58605;48.700;8.760;2024-01-16T11:39:20;-1.10;79.20
70947;DHT22;58605;48.700;8.760;2024-01-16T11:41:55;-1.10;79.20
70947;DHT22;58605;48.700;8.760;2024-01-16T11:44:45;-1.00;79.30
70947;DHT22;58605;48.700;8.760;2024-01-16T11:47:20;-1.10;79.40
70947;DHT22;58605;48.700;8.760;2024-01-16T11:49:47;-1.10;79.60
70947;DHT22;58605;48.700;8.760;2024-01-16T11:52:14;-1.10;79.70
70947;DHT22;58605;48.700;8.760;2024-01-16T11:54:40;-1.10;79.80
70947;DHT22;58605;48.700;8.760;2024-01-16T11:57:47;-1.10;80.00
70947;DHT22;58605;48.700;8.760;2024-01-16T12:00:19;-1.10;79.70
70947;DHT22;58605;48.700;8.760;2024-01-16T12:02:52;-1.10;79.40
70947;DHT22;58605;48.700;8.760;2024-01-16T12:05:19;-1.10;80.00
70947;DHT22;58605;48.700;8.760;2024-01-16T12:07:46;-1.10;79.80
70947;DHT22;58605;48.700;8.760;2024-01-16T12:10:15;-1.10;80.00
70947;DHT22;58605;48.700;8.760;2024-01-16T12:12:42;-1.10;80.00
70947;DHT22;58605;48.700;8.760;2024-01-16T12:15:15;-1.10;79.70
70947;DHT22;58605;48.700;8.760;2024-01-16T12:17:54;-1.00;79.90
70947;DHT22;58605;48.700;8.760;2024-01-16T12:20:25;-1.00;79.70
70947;DHT22;58605;48.700;8.760;2024-01-16T12:22:59;-1.00;79.70
70947;DHT22;58605;48.700;8.760;2024-01-16T12:25:26;-1.00;79.80
70947;DHT22;58605;48.700;8.760;2024-01-16T12:27:57;-1.00;79.40
70947;DHT22;58605;48.700;8.760;2024-01-16T12:30:25;-1.00;79.30
70947;DHT22;58605;48.700;8.760;2024-01-16T12:33:03;-1.00;79.20
70947;DHT22;58605;48.700;8.760;2024-01-16T12:35:31;-1.00;79.40
70947;DHT22;58605;48.700;8.760;2024-01-16T12:38:04;-0.90;79.20
70947;DHT22;58605;48.700;8.760;2024-01-16T12:40:35;-0.90;79.10
70947;DHT22;58605;48.700;8.760;2024-01-16T12:43:02;-0.90;79.20
70947;DHT22;58605;48.700;8.760;2024-01-16T12:45:30;-0.90;79.20
70947;DHT22;58605;48.700;8.760;2024-01-16T12:47:57;-0.90;79.00
70947;DHT22;58605;48.700;8.760;2024-01-16T12:50:25;-0.90;79.30
70947;DHT22;58605;48.700;8.760;2024-01-16T12:53:02;-0.80;79.00
70947;DHT22;58605;48.700;8.760;2024-01-16T12:55:29;-0.80;78.80
70947;DHT22;58605;48.700;8.760;2024-01-16T12:58:13;-0.80;78.80
70947;DHT22;58605;48.700;8.760;2024-01-16T13:00:41;-0.80;78.90
70947;DHT22;58605;48.700;8.760;2024-01-16T13:03:07;-0.80;78.90
70947;DHT22;58605;48.700;8.760;2024-01-16T13:05:33;-0.70;78.90
70947;DHT22;58605;48.700;8.760;2024-01-16T13:08:00;-0.60;78.70
70947;DHT22;58605;48.700;8.760;2024-01-16T13:10:29;-0.60;78.40
70947;DHT22;58605;48.700;8.760;2024-01-16T13:13:11;-0.60;78.10
70947;DHT22;58605;48.700;8.760;2024-01-16T13:15:37;-0.50;78.30
70947;DHT22;58605;48.700;8.760;2024-01-16T13:18:05;-0.60;78.20
70947;DHT22;58605;48.700;8.760;2024-01-16T13:20:31;-0.50;78.30
70947;DHT22;58605;48.700;8.760;2024-01-16T13:22:57;-0.50;78.00
70947;DHT22;58605;48.700;8.760;2024-01-16T13:25:24;-0.50;77.80
70947;DHT22;58605;48.700;8.760;2024-01-16T13:27:50;-0.50;78.00
70947;DHT22;58605;48.700;8.760;2024-01-16T13:30:16;-0.50;78.10
70947;DHT22;58605;48.700;8.760;2024-01-16T13:32:43;-0.50;78.30
70947;DHT22;58605;48.700;8.760;2024-01-16T13:35:10;-0.60;78.30
70947;DHT22;58605;48.700;8.760;2024-01-16T13:37:37;-0.50;78.20
70947;DHT22;58605;48.700;8.760;2024-01-16T13:40:04;-0.50;78.10
70947;DHT22;58605;48.700;8.760;2024-01-16T13:42:34;-0.60;78.30
70947;DHT22;58605;48.700;8.760;2024-01-16T13:45:00;-0.60;78.60
70947;DHT22;58605;48.700;8.760;2024-01-16T13:47:27;-0.60;78.50
70947;DHT22;58605;48.700;8.760;2024-01-16T13:49:53;-0.50;78.30
70947;DHT22;58605;48.700;8.760;2024-01-16T13:52:21;-0.50;78.20
70947;DHT22;58605;48.700;8.760;2024-01-16T13:54:47;-0.40;78.00
70947;DHT22;58605;48.700;8.760;2024-01-16T13:57:13;-0.30;77.80
70947;DHT22;58605;48.700;8.760;2024-01-16T13:59:39;-0.30;77.80
70947;DHT22;58605;48.700;8.760;2024-01-16T14:02:07;-0.30;77.50
70947;DHT22;58605;48.700;8.760;2024-01-16T14:04:34;-0.30;77.50
70947;DHT22;58605;48.700;8.760;2024-01-16T14:07:00;-0.30;77.50
70947;DHT22;58605;48.700;8.760;2024-01-16T14:09:33;-0.30;77.60
70947;DHT22;58605;48.700;8.760;2024-01-16T14:11:59;-0.40;77.90
70947;DHT22;58605;48.700;8.760;2024-01-16T14:14:25;-0.50;78.20
70947;DHT22;58605;48.700;8.760;2024-01-16T14:16:52;-0.40;78.30
70947;DHT22;58605;48.700;8.760;2024-01-16T14:19:20;-0.40;78.40
70947;DHT22;58605;48.700;8.760;2024-01-16T14:21:46;-0.40;78.40
70947;DHT22;58605;48.700;8.760;2024-01-16T14:24:13;-0.40;78.40
70947;DHT22;58605;48.700;8.760;2024-01-16T14:26:43;-0.50;78.20
70947;DHT22;58605;48.700;8.760;2024-01-16T14:29:10;-0.40;78.30
70947;DHT22;58605;48.700;8.760;2024-01-16T14:31:36;-0.50;78.20
70947;DHT22;58605;48.700;8.760;2024-01-16T14:34:02;-0.50;78.40
70947;DHT22;58605;48.700;8.760;2024-01-16T14:36:29;-0.40;78.30
70947;DHT22;58605;48.700;8.760;2024-01-16T14:38:55;-0.40;78.30
70947;DHT22;58605;48.700;8.760;2024-01-16T14:41:21;-0.40;78.10
70947;DHT22;58605;48.700;8.760;2024-01-16T14:43:49;-0.40;78.40
70947;DHT22;58605;48.700;8.760;2024-01-16T14:46:15;-0.40;78.40
70947;DHT22;58605;48.700;8.760;2024-01-16T14:48:44;-0.30;78.30
70947;DHT22;58605;48.700;8.760;2024-01-16T14:51:11;-0.30;78.20
70947;DHT22;58605;48.700;8.760;2024-01-16T14:53:37;-0.20;78.10
70947;DHT22;58605;48.700;8.760;2024-01-16T14:56:04;-0.20;78.10
70947;DHT22;58605;48.700;8.760;2024-01-16T14:58:31;-0.30;78.00
70947;DHT22;58605;48.700;8.760;2024-01-16T15:00:59;-0.30;78.10
70947;DHT22;58605;48.700;8.760;2024-01-16T15:03:25;-0.20;78.20
70947;DHT22;58605;48.700;8.760;2024-01-16T15:05:52;-0.20;78.10
70947;DHT22;58605;48.700;8.760;2024-01-16T15:08:21;-0.20;78.00
70947;DHT22;58605;48.700;8.760;2024-01-16T15:10:47;-0.20;77.90
70947;DHT22;58605;48.700;8.760;2024-01-16T15:13:13;-0.20;77.90
70947;DHT22;58605;48.700;8.760;2024-01-16T15:15:39;-0.20;78.00
70947;DHT22;58605;48.700;8.760;2024-01-16T15:18:07;-0.10;77.60
70947;DHT22;58605;48.700;8.760;2024-01-16T15:20:33;-0.10;77.50
70947;DHT22;58605;48.700;8.760;2024-01-16T15:22:59;-0.10;77.50
70947;DHT22;58605;48.700;8.760;2024-01-16T15:25:26;-0.10;77.70
70947;DHT22;58605;48.700;8.760;2024-01-16T15:27:52;-0.10;77.40
70947;DHT22;58605;48.700;8.760;2024-01-16T15:30:22;0.00;76.90
70947;DHT22;58605;48.700;8.760;2024-01-16T15:32:50;0.10;76.80
70947;DHT22;58605;48.700;8.760;2024-01-16T15:35:18;0.20;76.70
70947;DHT22;58605;48.700;8.760;2024-01-16T15:37:48;0.20;76.50
70947;DHT22;58605;48.700;8.760;2024-01-16T15:40:14;0.20;76.40
70947;DHT22;58605;48.700;8.760;2024-01-16T15:42:41;0.20;76.40
70947;DHT22;58605;48.700;8.760;2024-01-16T15:45:08;0.30;73.80
70947;DHT22;58605;48.700;8.760;2024-01-16T15:47:37;0.40;72.50
70947;DHT22;58605;48.700;8.760;2024-01-16T15:50:04;0.50;70.60
70947;DHT22;58605;48.700;8.760;2024-01-16T15:52:32;0.60;65.90
70947;DHT22;58605;48.700;8.760;2024-01-16T15:54:59;0.70;67.50
70947;DHT22;58605;48.700;8.760;2024-01-16T15:57:25;0.70;64.70
70947;DHT22;58605;48.700;8.760;2024-01-16T15:59:51;0.70;63.60
70947;DHT22;58605;48.700;8.760;2024-01-16T16:02:17;0.60;61.90
70947;DHT22;58605;48.700;8.760;2024-01-16T16:04:44;0.10;60.90
70947;DHT22;58605;48.700;8.760;2024-01-16T16:07:10;-0.30;62.90
70947;DHT22;58605;48.700;8.760;2024-01-16T16:09:38;-0.80;63.30
70947;DHT22;58605;48.700;8.760;2024-01-16T16:12:06;-1.10;63.40
70947;DHT22;58605;48.700;8.760;2024-01-16T16:14:32;-1.40;68.00
70947;DHT22;58605;48.700;8.760;2024-01-16T16:17:01;-1.20;69.50
70947;DHT22;58605;48.700;8.760;2024-01-16T16:19:30;-1.00;68.40
70947;DHT22;58605;48.700;8.760;2024-01-16T16:21:56;-1.20;67.00
70947;DHT22;58605;48.700;8.760;2024-01-16T16:24:23;-1.40;67.40
70947;DHT22;58605;48.700;8.760;2024-01-16T16:26:51;-1.60;67.70
70947;DHT22;58605;48.700;8.760;2024-01-16T16:29:19;-1.70;68.80
70947;DHT22;58605;48.700;8.760;2024-01-16T16:31:46;-1.80;68.60
70947;DHT22;58605;48.700;8.760;2024-01-16T16:34:13;-1.90;69.30
70947;DHT22;58605;48.700;8.760;2024-01-16T16:36:44;-1.90;69.00
70947;DHT22;58605;48.700;8.760;2024-01-16T16:39:10;-2.00;69.60
70947;DHT22;58605;48.700;8.760;2024-01-16T16:41:40;-2.20;70.20
70947;DHT22;58605;48.700;8.760;2024-01-16T16:44:08;-2.30;71.80
70947;DHT22;58605;48.700;8.760;2024-01-16T16:46:34;-2.40;72.70
70947;DHT22;58605;48.700;8.760;2024-01-16T16:49:01;-2.50;73.80
70947;DHT22;58605;48.700;8.760;2024-01-16T16:51:27;-2.50;74.10
70947;DHT22;58605;48.700;8.760;2024-01-16T16:53:54;-2.50;74.80
70947;DHT22;58605;48.700;8.760;2024-01-16T16:56:20;-2.50;74.10
70947;DHT22;58605;48.700;8.760;2024-01-16T16:58:48;-2.60;74.70
70947;DHT22;58605;48.700;8.760;2024-01-16T17:01:17;-2.70;75.00
70947;DHT22;58605;48.700;8.760;2024-01-16T17:03:45;-2.70;74.70
70947;DHT22;58605;48.700;8.760;2024-01-16T17:06:12;-2.80;74.30
70947;DHT22;58605;48.700;8.760;2024-01-16T17:08:41;-2.80;74.40
70947;DHT22;58605;48.700;8.760;2024-01-16T17:11:11;-2.90;73.50
70947;DHT22;58605;48.700;8.760;2024-01-16T17:13:39;-3.00;73.90
70947;DHT22;58605;48.700;8.760;2024-01-16T17:16:06;-3.00;74.40
70947;DHT22;58605;48.700;8.760;2024-01-16T17:18:44;-3.10;75.00
70947;DHT22;58605;48.700;8.760;2024-01-16T17:21:17;-3.20;74.00
70947;DHT22;58605;48.700;8.760;2024-01-16T17:23:43;-3.50;73.00
70947;DHT22;58605;48.700;8.760;2024-01-16T17:26:10;-3.60;74.70
70947;DHT22;58605;48.700;8.760;2024-01-16T17:28:39;-3.60;75.70
70947;DHT22;58605;48.700;8.760;2024-01-16T17:31:06;-3.70;74.90
70947;DHT22;58605;48.700;8.760;2024-01-16T17:33:33;-3.80;75.30
70947;DHT22;58605;48.700;8.760;2024-01-16T17:36:00;-3.80;76.30
70947;DHT22;58605;48.700;8.760;2024-01-16T17:38:31;-3.90;75.80
70947;DHT22;58605;48.700;8.760;2024-01-16T17:40:57;-4.00;76.30
70947;DHT22;58605;48.700;8.760;2024-01-16T17:43:24;-3.90;76.80
70947;DHT22;58605;48.700;8.760;2024-01-16T17:45:51;-3.90;77.50
70947;DHT22;58605;48.700;8.760;2024-01-16T17:48:17;-3.90;76.80
70947;DHT22;58605;48.700;8.760;2024-01-16T17:50:44;-3.90;76.40
70947;DHT22;58605;48.700;8.760;2024-01-16T17:53:15;-4.00;74.60
70947;DHT22;58605;48.700;8.760;2024-01-16T17:55:41;-4.40;73.90
70947;DHT22;58605;48.700;8.760;2024-01-16T17:58:08;-4.50;76.10
70947;DHT22;58605;48.700;8.760;2024-01-16T18:00:34;-4.50;74.70
70947;DHT22;58605;48.700;8.760;2024-01-16T18:03:01;-4.70;75.60
70947;DHT22;58605;48.700;8.760;2024-01-16T18:05:27;-4.60;77.40
70947;DHT22;58605;48.700;8.760;2024-01-16T18:07:55;-4.50;77.30
70947;DHT22;58605;48.700;8.760;2024-01-16T18:10:23;-4.40;77.50
70947;DHT22;58605;48.700;8.760;2024-01-16T18:12:49;-4.40;77.40
70947;DHT22;58605;48.700;8.760;2024-01-16T18:15:16;-4.40;77.40
70947;DHT22;58605;48.700;8.760;2024-01-16T18:17:45;-4.50;75.90
70947;DHT22;58605;48.700;8.760;2024-01-16T18:20:12;-4.80;74.80
70947;DHT22;58605;48.700;8.760;2024-01-16T18:22:42;-5.10;74.50
70947;DHT22;58605;48.700;8.760;2024-01-16T18:25:09;-5.20;75.80
70947;DHT22;58605;48.700;8.760;2024-01-16T18:27:37;-5.40;75.10
70947;DHT22;58605;48.700;8.760;2024-01-16T18:30:04;-5.40;79.90
70947;DHT22;58605;48.700;8.760;2024-01-16T18:32:30;-5.20;81.40
70947;DHT22;58605;48.700;8.760;2024-01-16T18:34:56;-5.20;79.50
70947;DHT22;58605;48.700;8.760;2024-01-16T18:37:22;-5.20;79.90
70947;DHT22;58605;48.700;8.760;2024-01-16T18:39:49;-5.10;80.50
70947;DHT22;58605;48.700;8.760;2024-01-16T18:42:15;-5.10;80.20
70947;DHT22;58605;48.700;8.760;2024-01-16T18:44:43;-5.30;77.60
70947;DHT22;58605;48.700;8.760;2024-01-16T18:47:11;-5.30;80.40
70947;DHT22;58605;48.700;8.760;2024-01-16T18:49:38;-5.30;79.70
70947;DHT22;58605;48.700;8.760;2024-01-16T18:52:04;-5.30;80.10
70947;DHT22;58605;48.700;8.760;2024-01-16T18:54:30;-5.50;79.80
70947;DHT22;58605;48.700;8.760;2024-01-16T18:56:56;-5.50;80.90
70947;DHT22;58605;48.700;8.760;2024-01-16T18:59:22;-5.50;83.20
70947;DHT22;58605;48.700;8.760;2024-01-16T19:01:50;-5.70;80.20
70947;DHT22;58605;48.700;8.760;2024-01-16T19:04:16;-5.60;81.70
70947;DHT22;58605;48.700;8.760;2024-01-16T19:06:43;-5.70;80.10
70947;DHT22;58605;48.700;8.760;2024-01-16T19:09:18;-5.80;81.00
70947;DHT22;58605;48.700;8.760;2024-01-16T19:11:48;-5.80;81.80
70947;DHT22;58605;48.700;8.760;2024-01-16T19:14:15;-5.90;80.40
70947;DHT22;58605;48.700;8.760;2024-01-16T19:16:41;-6.00;81.20
70947;DHT22;58605;48.700;8.760;2024-01-16T19:19:11;-6.10;79.20
70947;DHT22;58605;48.700;8.760;2024-01-16T19:21:37;-6.10;79.70
70947;DHT22;58605;48.700;8.760;2024-01-16T19:24:04;-6.20;77.10
70947;DHT22;58605;48.700;8.760;2024-01-16T19:26:30;-6.70;75.80
70947;DHT22;58605;48.700;8.760;2024-01-16T19:28:56;-6.80;80.40
70947;DHT22;58605;48.700;8.760;2024-01-16T19:31:22;-7.00;80.70
70947;DHT22;58605;48.700;8.760;2024-01-16T19:33:48;-6.90;85.30
70947;DHT22;58605;48.700;8.760;2024-01-16T19:36:17;-6.70;87.20
70947;DHT22;58605;48.700;8.760;2024-01-16T19:38:43;-6.70;87.60
70947;DHT22;58605;48.700;8.760;2024-01-16T19:41:09;-6.60;88.90
70947;DHT22;58605;48.700;8.760;2024-01-16T19:43:35;-6.50;89.70
70947;DHT22;58605;48.700;8.760;2024-01-16T19:46:01;-6.50;87.00
70947;DHT22;58605;48.700;8.760;2024-01-16T19:48:28;-6.80;80.50
70947;DHT22;58605;48.700;8.760;2024-01-16T19:50:54;-7.20;77.20
70947;DHT22;58605;48.700;8.760;2024-01-16T19:53:21;-7.20;84.60
70947;DHT22;58605;48.700;8.760;2024-01-16T19:55:50;-7.20;87.20
70947;DHT22;58605;48.700;8.760;2024-01-16T19:58:16;-7.00;88.90
70947;DHT22;58605;48.700;8.760;2024-01-16T20:00:42;-6.90;86.90
70947;DHT22;58605;48.700;8.760;2024-01-16T20:03:10;-7.00;84.00
70947;DHT22;58605;48.700;8.760;2024-01-16T20:05:37;-6.90;86.30
70947;DHT22;58605;48.700;8.760;2024-01-16T20:08:07;-6.80;87.50
70947;DHT22;58605;48.700;8.760;2024-01-16T20:10:35;-6.80;86.70
70947;DHT22;58605;48.700;8.760;2024-01-16T20:13:03;-6.80;86.70
70947;DHT22;58605;48.700;8.760;2024-01-16T20:15:29;-6.80;85.50
70947;DHT22;58605;48.700;8.760;2024-01-16T20:17:58;-6.80;84.90
70947;DHT22;58605;48.700;8.760;2024-01-16T20:20:26;-6.70;87.70
70947;DHT22;58605;48.700;8.760;2024-01-16T20:22:52;-6.70;86.80
70947;DHT22;58605;48.700;8.760;2024-01-16T20:25:20;-6.70;87.10
70947;DHT22;58605;48.700;8.760;2024-01-16T20:27:51;-6.80;86.10
70947;DHT22;58605;48.700;8.760;2024-01-16T20:30:18;-6.90;82.50
70947;DHT22;58605;48.700;8.760;2024-01-16T20:32:45;-7.10;83.50
70947;DHT22;58605;48.700;8.760;2024-01-16T20:35:12;-7.10;85.00
70947;DHT22;58605;48.700;8.760;2024-01-16T20:37:38;-7.10;86.30
70947;DHT22;58605;48.700;8.760;2024-01-16T20:40:06;-7.10;87.30
70947;DHT22;58605;48.700;8.760;2024-01-16T20:42:32;-7.00;89.10
70947;DHT22;58605;48.700;8.760;2024-01-16T20:45:00;-7.10;87.90
70947;DHT22;58605;48.700;8.760;2024-01-16T20:47:26;-7.10;89.30
70947;DHT22;58605;48.700;8.760;2024-01-16T20:49:53;-7.00;90.20
70947;DHT22;58605;48.700;8.760;2024-01-16T20:52:19;-6.90;90.50
70947;DHT22;58605;48.700;8.760;2024-01-16T20:54:47;-6.80;90.40
70947;DHT22;58605;48.700;8.760;2024-01-16T20:57:13;-6.70;91.20
70947;DHT22;58605;48.700;8.760;2024-01-16T20:59:40;-6.70;91.30
70947;DHT22;58605;48.700;8.760;2024-01-16T21:02:07;-6.70;90.90
70947;DHT22;58605;48.700;8.760;2024-01-16T21:04:33;-6.70;90.90
70947;DHT22;58605;48.700;8.760;2024-01-16T21:07:00;-6.80;90.70
70947;DHT22;58605;48.700;8.760;2024-01-16T21:09:29;-6.80;90.60
70947;DHT22;58605;48.700;8.760;2024-01-16T21:11:55;-6.80;89.60
70947;DHT22;58605;48.700;8.760;2024-01-16T21:14:22;-6.90;87.70
70947;DHT22;58605;48.700;8.760;2024-01-16T21:16:48;-7.10;86.50
70947;DHT22;58605;48.700;8.760;2024-01-16T21:19:17;-7.20;87.90
70947;DHT22;58605;48.700;8.760;2024-01-16T21:21:53;-7.20;88.60
70947;DHT22;58605;48.700;8.760;2024-01-16T21:24:20;-7.30;86.80
70947;DHT22;58605;48.700;8.760;2024-01-16T21:26:47;-7.30;87.40
70947;DHT22;58605;48.700;8.760;2024-01-16T21:29:13;-7.30;88.30
70947;DHT22;58605;48.700;8.760;2024-01-16T21:31:43;-7.30;89.20
70947;DHT22;58605;48.700;8.760;2024-01-16T21:34:10;-7.20;89.30
70947;DHT22;58605;48.700;8.760;2024-01-16T21:36:38;-7.10;89.80
70947;DHT22;58605;48.700;8.760;2024-01-16T21:39:05;-7.10;90.00
70947;DHT22;58605;48.700;8.760;2024-01-16T21:41:35;-7.10;88.20
70947;DHT22;58605;48.700;8.760;2024-01-16T21:44:01;-7.10;87.90
70947;DHT22;58605;48.700;8.760;2024-01-16T21:46:27;-7.10;88.40
70947;DHT22;58605;48.700;8.760;2024-01-16T21:48:53;-7.10;90.10
70947;DHT22;58605;48.700;8.760;2024-01-16T21:51:20;-7.10;88.10
70947;DHT22;58605;48.700;8.760;2024-01-16T21:53:47;-7.20;88.20
70947;DHT22;58605;48.700;8.760;2024-01-16T21:56:13;-7.40;84.60
70947;DHT22;58605;48.700;8.760;2024-01-16T21:58:39;-7.50;83.20
70947;DHT22;58605;48.700;8.760;2024-01-16T22:01:06;-7.70;83.30
70947;DHT22;58605;48.700;8.760;2024-01-16T22:03:32;-7.60;86.50
70947;DHT22;58605;48.700;8.760;2024-01-16T22:05:59;-7.20;88.50
70947;DHT22;58605;48.700;8.760;2024-01-16T22:08:26;-6.90;89.40
70947;DHT22;58605;48.700;8.760;2024-01-16T22:10:54;-6.70;89.90
70947;DHT22;58605;48.700;8.760;2024-01-16T22:13:20;-6.80;86.40
70947;DHT22;58605;48.700;8.760;2024-01-16T22:15:48;-7.20;84.30
70947;DHT22;58605;48.700;8.760;2024-01-16T22:18:14;-7.50;84.50
70947;DHT22;58605;48.700;8.760;2024-01-16T22:20:41;-7.60;86.20
70947;DHT22;58605;48.700;8.760;2024-01-16T22:23:07;-7.70;87.40
70947;DHT22;58605;48.700;8.760;2024-01-16T22:25:33;-7.60;88.90
70947;DHT22;58605;48.700;8.760;2024-01-16T22:28:01;-7.60;90.30
70947;DHT22;58605;48.700;8.760;2024-01-16T22:30:27;-7.50;90.20